Time;durP1;ratioP1;P1;durP2;ratioP2;P2;SDS_P1;SDS_P2;PMS_P1;PMS_P2;Temp;Humidity;BMP_temperature;BMP_pressure;BME280_temperature;BME280_humidity;BME280_pressure;Samples;Min_cycle;Max_cycle;Signal;HPM_P1;HPM_P2
2022/12/13 00:01:13;;;;;;;9.52;5.75;;;;;;;-1.97;85.25;100590.16;5009715;28;20384;-65
2022/12/13 00:03:39;;;;;;;9.32;6.22;;;;;;;-1.94;85.70;100597.53;5010191;28;20121;-65
2022/12/13 00:06:06;;;;;;;12.88;6.47;;;;;;;-1.94;85.54;100592.25;5021265;28;20130;-65
2022/12/13 00:08:31;;;;;;;18.50;5.70;;;;;;;-1.88;85.44;100596.41;5022521;28;20528;-65
2022/12/13 00:11:00;;;;;;;12.07;7.25;;;;;;;-1.86;85.28;100589.00;5011430;28;20097;-65
2022/12/13 00:13:27;;;;;;;16.55;4.78;;;;;;;-1.82;84.89;100591.91;4999787;28;20038;-67
2022/12/13 00:16:00;;;;;;;11.55;5.50;;;;;;;-1.85;85.19;100587.16;4997262;28;20037;-65
2022/12/13 00:18:26;;;;;;;21.45;4.85;;;;;;;-1.87;85.22;100587.44;5012245;28;20132;-66
2022/12/13 00:20:52;;;;;;;13.55;6.97;;;;;;;-1.91;85.26;100586.41;5007632;28;20046;-65
2022/12/13 00:23:18;;;;;;;18.95;6.13;;;;;;;-1.89;85.14;100592.22;5012012;28;20506;-65
2022/12/13 00:25:44;;;;;;;17.52;5.53;;;;;;;-1.96;84.92;100590.94;5011845;28;20037;-66
2022/12/13 00:28:10;;;;;;;12.95;5.95;;;;;;;-2.07;85.14;100589.44;5011530;28;20092;-65
2022/12/13 00:30:35;;;;;;;15.05;6.15;;;;;;;-2.09;85.27;100581.00;5005044;28;20036;-66
2022/12/13 00:33:01;;;;;;;15.70;5.97;;;;;;;-2.13;85.17;100579.97;5024462;28;20463;-66
2022/12/13 00:35:27;;;;;;;15.50;6.93;;;;;;;-2.10;85.64;100582.06;4998406;28;20688;-66
2022/12/13 00:37:52;;;;;;;8.43;4.35;;;;;;;-2.03;85.30;100583.31;5013311;28;20046;-66
2022/12/13 00:40:18;;;;;;;8.98;4.65;;;;;;;-2.04;84.68;100580.97;5014380;28;20109;-66
2022/12/13 00:43:03;;;;;;;10.30;4.75;;;;;;;-2.13;85.09;100582.59;4996320;28;20060;-66
2022/12/13 00:45:29;;;;;;;7.28;4.95;;;;;;;-2.29;85.60;100579.25;4969556;28;20034;-66
2022/12/13 00:47:54;;;;;;;23.02;5.97;;;;;;;-2.21;85.74;100583.97;4970174;28;20570;-66
2022/12/13 00:50:20;;;;;;;10.43;6.18;;;;;;;-2.32;85.63;100574.53;4964801;28;20047;-66
2022/12/13 00:52:45;;;;;;;22.92;6.38;;;;;;;-2.21;85.81;100568.16;4966709;28;20050;-66
2022/12/13 00:55:10;;;;;;;14.20;5.70;;;;;;;-2.18;85.24;100578.16;4948472;28;20061;-66
2022/12/13 00:57:36;;;;;;;13.38;5.43;;;;;;;-2.22;85.21;100577.09;4948708;28;20049;-66
2022/12/13 01:00:03;;;;;;;7.70;4.72;;;;;;;-2.37;85.54;100577.19;4967013;28;20110;-66
2022/12/13 01:02:28;;;;;;;19.50;6.32;;;;;;;-2.48;85.82;100575.66;4943489;28;20451;-66
2022/12/13 01:05:14;;;;;;;9.70;5.43;;;;;;;-2.36;85.64;100576.13;4958275;28;20049;-66
2022/12/13 01:07:43;;;;;;;20.92;7.30;;;;;;;-2.32;85.59;100566.59;4917260;29;20575;-66
2022/12/13 01:10:09;;;;;;;10.32;6.20;;;;;;;-2.26;85.07;100562.88;4904424;29;20051;-66
2022/12/13 01:12:35;;;;;;;12.77;6.35;;;;;;;-2.04;84.71;100559.88;4915145;29;20048;-65
2022/12/13 01:15:00;;;;;;;11.93;4.60;;;;;;;-2.11;84.85;100564.66;4919884;29;20457;-65
2022/12/13 01:17:26;;;;;;;15.15;3.90;;;;;;;-2.06;84.33;100559.34;4921607;29;20110;-65
2022/12/13 01:19:52;;;;;;;14.40;5.38;;;;;;;-2.11;84.83;100562.03;4928452;29;20420;-65
2022/12/13 01:22:17;;;;;;;9.18;4.60;;;;;;;-2.20;84.93;100559.16;4922879;28;20050;-65
2022/12/13 01:24:43;;;;;;;5.43;4.55;;;;;;;-2.35;84.94;100563.72;4969934;28;20066;-65
2022/12/13 01:27:08;;;;;;;14.80;5.32;;;;;;;-2.43;85.35;100561.66;4966839;28;20035;-65
2022/12/13 01:29:34;;;;;;;7.85;4.07;;;;;;;-2.41;85.36;100549.78;4967375;28;20046;-65
2022/12/13 01:31:59;;;;;;;13.35;5.60;;;;;;;-2.47;85.17;100542.97;4970349;28;20089;-65
2022/12/13 01:34:26;;;;;;;14.63;5.57;;;;;;;-2.49;85.19;100555.63;4969711;28;20034;-65
2022/12/13 01:36:52;;;;;;;12.50;6.40;;;;;;;-2.46;85.28;100555.09;4969017;28;20070;-65
2022/12/13 01:39:19;;;;;;;12.65;6.65;;;;;;;-2.43;85.16;100556.38;4952680;28;20081;-65
2022/12/13 01:41:47;;;;;;;7.13;4.60;;;;;;;-2.52;84.90;100563.28;4962534;28;20046;-65
2022/12/13 01:44:50;;;;;;;14.00;5.60;;;;;;;-2.51;84.90;100549.03;4982596;28;20516;-65
2022/12/13 01:47:21;;;;;;;7.82;4.10;;;;;;;-2.54;85.01;100566.22;5007991;28;20025;-65
2022/12/13 01:49:51;;;;;;;;;;;;;;;-2.53;84.99;100556.44;5009256;28;20550;-65
2022/12/13 01:52:16;;;;;;;12.70;5.78;;;;;;;-2.51;84.94;100543.78;5011096;28;19924;-65
2022/12/13 01:54:47;;;;;;;17.05;5.35;;;;;;;-2.46;84.85;100546.41;5009825;28;20029;-65
2022/12/13 01:57:16;;;;;;;6.53;5.82;;;;;;;-2.56;85.04;100541.19;5005135;28;20046;-66
2022/12/13 01:59:46;;;;;;;12.90;5.43;;;;;;;-2.50;85.32;100545.38;4991594;28;20034;-65
2022/12/13 02:02:13;;;;;;;10.25;5.10;;;;;;;-2.52;85.12;100543.00;5007598;28;20039;-65
2022/12/13 02:04:43;;;;;;;12.02;7.00;;;;;;;-2.54;84.58;100549.59;5010874;28;20597;-65
2022/12/13 02:07:13;;;;;;;11.82;4.13;;;;;;;-2.53;84.85;100553.78;5009499;28;20041;-65
2022/12/13 02:09:38;;;;;;;6.45;4.72;;;;;;;-2.54;84.87;100549.59;5002416;28;20038;-65
2022/12/13 02:12:06;;;;;;;10.20;5.45;;;;;;;-2.45;84.40;100553.22;5009717;28;20044;-66
2022/12/13 02:14:34;;;;;;;12.95;5.70;;;;;;;-2.48;84.24;100538.78;5009734;28;20038;-65
2022/12/13 02:17:21;;;;;;;12.15;4.15;;;;;;;-2.56;84.20;100549.88;5000054;28;20029;-66
2022/12/13 02:19:53;;;;;;;6.00;5.10;;;;;;;-2.51;84.21;100538.50;5005049;28;20022;-65
2022/12/13 02:22:31;;;;;;;12.05;4.57;;;;;;;-2.70;84.44;100535.69;5026351;28;20391;-65
2022/12/13 02:25:18;;;;;;;9.50;4.38;;;;;;;-2.73;84.47;100536.25;5010821;28;20360;-65
2022/12/13 02:28:11;;;;;;;10.77;5.57;;;;;;;-2.67;85.06;100531.75;5004570;28;20081;-65
2022/12/13 02:30:41;;;;;;;4.95;4.32;;;;;;;-2.64;84.54;100531.19;5020456;28;20061;-65
2022/12/13 02:33:21;;;;;;;5.13;3.80;;;;;;;-2.76;84.53;100524.41;5006678;28;20117;-66
2022/12/13 02:36:06;;;;;;;6.35;3.30;;;;;;;-2.72;84.46;100526.47;5024657;28;20034;-66
2022/12/13 02:38:59;;;;;;;7.38;4.95;;;;;;;-2.64;84.15;100521.47;4997101;28;20029;-66
2022/12/13 02:41:35;;;;;;;9.93;5.10;;;;;;;-2.72;84.23;100516.75;5009838;28;20477;-66
2022/12/13 02:44:06;;;;;;;8.70;4.35;;;;;;;-2.79;84.20;100514.38;5010758;28;20045;-66
2022/12/13 02:46:38;;;;;;;13.40;4.00;;;;;;;-2.75;84.18;100522.56;4998153;28;20092;-67
2022/12/13 02:49:05;;;;;;;4.90;3.53;;;;;;;-2.82;84.23;100517.56;5005606;28;20045;-66
2022/12/13 02:51:32;;;;;;;10.95;4.72;;;;;;;-2.96;84.62;100518.44;5004936;28;20037;-66
2022/12/13 02:53:57;;;;;;;8.93;4.03;;;;;;;-2.95;84.90;100512.09;5006168;28;20245;-66
2022/12/13 02:56:22;;;;;;;7.15;5.38;;;;;;;-3.02;84.96;100519.50;5009804;28;20040;-66
2022/12/13 02:58:52;;;;;;;4.55;3.28;;;;;;;-3.02;84.68;100524.78;5003491;28;20042;-65
2022/12/13 03:01:23;;;;;;;12.05;4.32;;;;;;;-3.08;84.92;100520.56;5007556;28;20033;-66
2022/12/13 03:04:24;;;;;;;12.95;3.95;;;;;;;-3.05;85.08;100523.44;5011075;28;20041;-66
2022/12/13 03:07:17;;;;;;;6.03;3.55;;;;;;;-3.12;84.99;100528.22;5004620;28;20521;-66
2022/12/13 03:10:01;;;;;;;8.45;4.53;;;;;;;-3.06;85.27;100515.81;5007376;28;20734;-65
2022/12/13 03:15:33;;;;;;;14.77;4.75;;;;;;;-2.63;84.06;100515.09;5025749;28;20034;-66
2022/12/13 03:18:15;;;;;;;5.47;4.10;;;;;;;-2.66;83.05;100520.13;5028433;28;20117;-66
2022/12/13 03:20:51;;;;;;;11.90;5.25;;;;;;;-2.99;83.55;100506.59;5012455;28;20377;-65
2022/12/13 03:23:18;;;;;;;8.98;3.58;;;;;;;-3.00;84.14;100512.91;5006780;28;20048;-66
2022/12/13 03:25:46;;;;;;;9.57;5.00;;;;;;;-2.88;83.92;100520.50;5012732;28;20038;-66
2022/12/13 03:28:11;;;;;;;8.75;4.80;;;;;;;-2.87;83.66;100520.25;5025586;28;20154;-66
2022/12/13 03:30:37;;;;;;;9.98;5.13;;;;;;;-2.92;83.80;100516.81;5012030;28;20057;-65
2022/12/13 03:33:03;;;;;;;7.05;4.65;;;;;;;-2.97;83.87;100508.94;5003642;28;20406;-66
2022/12/13 03:35:29;;;;;;;15.95;5.15;;;;;;;-2.97;83.80;100515.00;5027432;28;20041;-66
2022/12/13 03:37:55;;;;;;;7.05;4.78;;;;;;;-3.02;83.67;100515.00;5012952;28;20483;-66
2022/12/13 03:40:20;;;;;;;11.02;4.07;;;;;;;-2.99;84.10;100511.84;5012964;28;20041;-66
2022/12/13 03:42:46;;;;;;;7.47;3.63;;;;;;;-3.01;83.93;100513.97;5006156;28;20037;-66
2022/12/13 03:45:12;;;;;;;6.22;3.85;;;;;;;-3.09;84.25;100505.81;5012183;28;20030;-66
2022/12/13 03:47:37;;;;;;;13.05;4.97;;;;;;;-3.11;84.43;100508.72;4996341;28;20084;-67
2022/12/13 03:50:03;;;;;;;5.82;3.90;;;;;;;-3.12;84.41;100507.16;4995948;28;20483;-66
2022/12/13 03:52:29;;;;;;;5.45;4.00;;;;;;;-3.17;84.38;100503.72;5012135;28;20045;-66
2022/12/13 03:54:55;;;;;;;8.32;3.42;;;;;;;-2.83;83.90;100505.44;5008036;28;20034;-66
2022/12/13 03:57:20;;;;;;;5.63;3.95;;;;;;;-2.81;83.88;100502.56;5009844;22;20042;-65
2022/12/13 03:59:45;;;;;;;4.60;3.97;;;;;;;-2.91;83.51;100497.34;4980902;28;20407;-66
2022/12/13 04:02:11;;;;;;;8.93;4.88;;;;;;;-2.93;83.88;100502.09;4972352;28;20042;-65
2022/12/13 04:04:36;;;;;;;13.55;4.80;;;;;;;-2.98;84.02;100497.63;4985838;28;20034;-65
2022/12/13 04:07:05;;;;;;;11.70;4.45;;;;;;;-2.84;83.62;100488.09;4984028;28;20066;-65
2022/12/13 04:09:30;;;;;;;10.63;4.13;;;;;;;-2.88;83.13;100494.94;4974780;28;20413;-65
2022/12/13 04:14:40;;;;;;;10.10;3.33;;;;;;;-3.02;83.10;100495.81;4969534;28;20045;-65
2022/12/13 04:17:05;;;;;;;6.55;3.95;;;;;;;-3.13;83.09;100486.34;4957355;28;20030;-65
2022/12/13 04:19:30;;;;;;;7.32;4.68;;;;;;;-3.03;83.33;100478.41;4954862;28;20035;-65
2022/12/13 04:21:56;;;;;;;7.32;5.22;;;;;;;-2.98;82.89;100479.19;4967769;28;20034;-66
2022/12/13 04:24:24;;;;;;;14.85;4.05;;;;;;;-3.10;83.07;100484.00;4955950;28;20093;-65
2022/12/13 04:26:49;;;;;;;7.95;4.93;;;;;;;-3.15;83.43;100481.34;4962516;28;20035;-65
2022/12/13 04:29:15;;;;;;;17.48;3.78;;;;;;;-3.21;83.47;100484.25;4964308;28;20493;-65
2022/12/13 04:31:40;;;;;;;10.50;4.88;;;;;;;-3.20;84.10;100488.47;4974042;28;20434;-65
2022/12/13 04:34:06;;;;;;;6.72;4.28;;;;;;;-3.15;84.27;100472.66;4968782;28;20038;-65
2022/12/13 04:36:32;;;;;;;18.40;5.22;;;;;;;-2.99;84.31;100479.47;4972857;28;20400;-65
2022/12/13 04:38:57;;;;;;;13.20;5.18;;;;;;;-2.91;83.95;100473.63;4972584;28;20125;-65
2022/12/13 04:41:23;;;;;;;10.45;6.45;;;;;;;-2.89;84.02;100472.31;4978080;28;20033;-65
2022/12/13 04:43:52;;;;;;;9.43;3.83;;;;;;;-2.90;83.94;100468.09;4981298;28;20113;-65
2022/12/13 04:46:19;;;;;;;18.67;4.40;;;;;;;-2.91;84.06;100471.00;4978261;28;20133;-66
2022/12/13 04:48:45;;;;;;;24.77;8.93;;;;;;;-2.80;84.08;100469.88;4969696;28;20045;-65
2022/12/13 04:51:11;;;;;;;26.88;13.88;;;;;;;-2.75;84.24;100475.16;4982173;28;20037;-65
2022/12/13 04:53:36;;;;;;;21.60;7.88;;;;;;;-2.80;84.99;100493.59;4984126;28;20034;-65
2022/12/13 04:56:03;;;;;;;18.30;7.47;;;;;;;-2.68;84.97;100482.75;4969927;28;20438;-65
2022/12/13 04:58:29;;;;;;;19.50;5.13;;;;;;;-2.56;85.03;100489.28;4977076;28;20081;-65
2022/12/13 05:00:55;;;;;;;12.68;5.00;;;;;;;-2.50;85.13;100488.19;4977727;28;20030;-66
2022/12/13 05:03:21;;;;;;;8.32;4.03;;;;;;;-2.46;85.48;100489.22;4965813;28;20697;-65
2022/12/13 05:05:46;;;;;;;9.27;5.63;;;;;;;-2.32;85.35;100489.41;4967931;28;20042;-65
2022/12/13 05:08:12;;;;;;;8.98;5.18;;;;;;;-2.35;85.51;100485.47;4987744;28;20033;-66
2022/12/13 05:10:37;;;;;;;11.07;5.60;;;;;;;-2.35;86.12;100482.81;4955279;28;20554;-65
2022/12/13 05:13:06;;;;;;;6.05;5.28;;;;;;;-2.42;86.58;100479.69;4948180;28;20417;-65
2022/12/13 05:15:32;;;;;;;8.63;4.95;;;;;;;-2.28;86.55;100482.50;4980255;28;20106;-66
2022/12/13 05:18:03;;;;;;;6.45;4.53;;;;;;;-2.23;86.42;100483.28;4989029;28;20048;-65
2022/12/13 05:20:29;;;;;;;6.90;4.68;;;;;;;-2.29;87.03;100467.75;4981354;28;20121;-65
2022/12/13 05:22:57;;;;;;;12.38;4.22;;;;;;;-2.16;86.89;100473.19;4971729;28;20109;-65
2022/12/13 05:25:24;;;;;;;11.73;5.13;;;;;;;-2.23;86.74;100478.00;4991627;28;20042;-65
2022/12/13 05:27:52;;;;;;;6.50;5.07;;;;;;;-2.16;87.17;100470.56;4956854;28;20043;-65
2022/12/13 05:30:18;;;;;;;6.50;4.28;;;;;;;-2.27;88.06;100471.69;4956034;28;20127;-65
2022/12/13 05:32:44;;;;;;;10.07;4.07;;;;;;;-2.18;88.02;100471.88;4972011;28;20077;-65
2022/12/13 05:35:11;;;;;;;16.80;5.25;;;;;;;-2.11;88.18;100478.41;4959595;28;20039;-66
2022/12/13 05:37:37;;;;;;;10.35;3.85;;;;;;;-1.99;87.89;100472.78;4959637;28;20459;-65
2022/12/13 05:40:03;;;;;;;8.40;3.50;;;;;;;-2.13;88.12;100479.78;4972324;28;20050;-66
2022/12/13 05:42:28;;;;;;;16.50;5.25;;;;;;;-2.08;88.33;100475.25;4964685;28;20035;-65
2022/12/13 05:44:54;;;;;;;13.60;5.28;;;;;;;-1.99;88.60;100484.13;4970640;28;20070;-65
2022/12/13 05:47:19;;;;;;;9.32;3.90;;;;;;;-1.87;88.19;100486.41;4974465;28;20041;-67
2022/12/13 05:49:47;;;;;;;8.35;5.32;;;;;;;-1.86;88.08;100485.38;4963443;28;20035;-65
2022/12/13 05:52:21;;;;;;;5.57;3.35;;;;;;;-1.82;88.06;100478.47;4979176;28;20041;-65
2022/12/13 05:54:47;;;;;;;8.00;4.47;;;;;;;-1.84;88.30;100486.66;4989674;28;20042;-65
2022/12/13 05:57:13;;;;;;;8.38;4.95;;;;;;;-1.82;87.82;100479.25;4974320;28;20496;-65
2022/12/13 05:59:38;;;;;;;12.23;4.55;;;;;;;-1.75;87.98;100484.22;4949368;28;20077;-65
2022/12/13 06:02:04;;;;;;;11.32;4.97;;;;;;;-1.74;87.86;100477.09;4956573;28;20038;-65
2022/12/13 06:04:30;;;;;;;5.82;4.05;;;;;;;-1.83;88.16;100480.31;4960965;28;20037;-65
2022/12/13 06:06:55;;;;;;;13.60;5.35;;;;;;;-2.04;89.22;100478.91;4982941;28;20387;-65
2022/12/13 06:09:21;;;;;;;15.07;5.60;;;;;;;-2.08;89.76;100471.81;4953616;28;20415;-65
2022/12/13 06:11:47;;;;;;;7.40;3.33;;;;;;;-2.02;90.32;100468.09;4973475;28;20037;-65
2022/12/13 06:14:16;;;;;;;9.43;4.10;;;;;;;-1.94;89.95;100460.38;4983273;28;20065;-65
2022/12/13 06:16:41;;;;;;;8.10;5.18;;;;;;;-1.74;89.71;100477.09;4988151;28;20533;-66
2022/12/13 06:19:07;;;;;;;8.10;3.83;;;;;;;-1.75;89.38;100473.66;4969989;28;20125;-65
2022/12/13 06:21:35;;;;;;;8.18;4.13;;;;;;;-1.73;89.50;100486.56;4987541;28;20655;-65
2022/12/13 06:24:04;;;;;;;6.88;4.25;;;;;;;-1.62;89.16;100478.28;4951380;28;20127;-65
2022/12/13 06:26:29;;;;;;;7.97;4.22;;;;;;;-1.61;89.42;100482.50;4957697;28;20043;-65
2022/12/13 06:28:55;;;;;;;5.38;3.50;;;;;;;-1.55;89.47;100480.59;4962697;28;20035;-65
2022/12/13 06:31:41;;;;;;;9.70;3.63;;;;;;;-1.45;88.91;100486.56;4956031;28;20063;-65
2022/12/13 06:34:06;;;;;;;10.85;4.47;;;;;;;-1.48;89.11;100479.19;4895397;29;20398;-66
2022/12/13 06:36:32;;;;;;;8.10;4.20;;;;;;;-1.45;89.19;100478.63;4911130;29;20072;-65
2022/12/13 06:39:05;;;;;;;14.48;4.13;;;;;;;-1.24;88.45;100476.59;4886175;29;20043;-65
2022/12/13 06:41:33;;;;;;;3.50;2.00;;;;;;;-1.35;88.51;100480.38;4907925;29;20036;-65
2022/12/13 06:43:59;;;;;;;11.13;4.03;;;;;;;-1.37;88.73;100470.09;4920368;29;20124;-65
2022/12/13 06:46:25;;;;;;;5.53;4.55;;;;;;;-1.26;88.94;100471.56;4922140;29;20079;-66
2022/12/13 06:48:52;;;;;;;16.42;4.25;;;;;;;-1.41;88.89;100477.00;4896628;29;20652;-67
2022/12/13 06:51:18;;;;;;;4.55;3.30;;;;;;;-1.26;88.68;100476.84;4891122;29;20064;-66
2022/12/13 06:53:43;;;;;;;11.07;4.00;;;;;;;-1.29;88.81;100476.63;4895181;29;20068;-66
2022/12/13 06:56:11;;;;;;;5.85;3.95;;;;;;;-1.25;88.65;100486.34;4907241;29;20168;-66
2022/12/13 06:58:37;;;;;;;14.68;6.07;;;;;;;-1.25;88.78;100475.00;4899385;29;20053;-65
2022/12/13 07:01:09;;;;;;;7.50;3.95;;;;;;;-1.22;88.59;100483.13;4900370;29;20055;-65
2022/12/13 07:03:37;;;;;;;12.10;5.30;;;;;;;-1.18;88.69;100483.38;4884171;29;20220;-66
2022/12/13 07:06:07;;;;;;;13.20;5.25;;;;;;;-1.15;88.34;100488.88;4894871;29;20079;-66
2022/12/13 07:08:52;;;;;;;8.00;3.67;;;;;;;-1.04;88.61;100495.63;4901322;29;20684;-66
2022/12/13 07:11:29;;;;;;;6.95;4.00;;;;;;;-1.06;88.57;100491.69;4868944;29;20041;-65
2022/12/13 07:13:55;;;;;;;7.70;4.25;;;;;;;-1.09;89.11;100497.53;4888060;29;20507;-66
2022/12/13 07:16:22;;;;;;;7.47;3.92;;;;;;;-1.06;88.43;100491.69;4889418;29;20052;-66
2022/12/13 07:19:01;;;;;;;10.18;5.13;;;;;;;-1.21;89.31;100484.72;4887296;29;20513;-66
2022/12/13 07:21:28;;;;;;;11.20;5.63;;;;;;;-1.08;89.20;100486.69;4890520;29;20044;-65
2022/12/13 07:23:53;;;;;;;6.78;3.72;;;;;;;-1.00;88.93;100499.28;4885829;29;20040;-65
2022/12/13 07:26:19;;;;;;;8.35;5.07;;;;;;;-0.85;88.22;100500.94;4885630;29;20572;-65
2022/12/13 07:28:45;;;;;;;9.07;3.90;;;;;;;-0.94;88.26;100495.50;4888737;29;20375;-70
2022/12/13 07:31:12;;;;;;;7.00;3.10;;;;;;;-0.94;89.03;100498.16;4887346;29;20185;-66
2022/12/13 07:33:38;;;;;;;7.60;3.58;;;;;;;-0.97;89.24;100503.22;4888435;29;20542;-66
2022/12/13 07:36:08;;;;;;;6.00;3.28;;;;;;;-0.94;88.92;100500.78;4893024;29;20054;-65
2022/12/13 07:38:34;;;;;;;16.27;5.47;;;;;;;-0.91;89.16;100499.47;4880020;29;20596;-66
2022/12/13 07:41:00;;;;;;;17.95;4.95;;;;;;;-0.88;89.22;100503.38;4883110;29;20029;-65
2022/12/13 07:43:26;;;;;;;7.95;3.75;;;;;;;-0.88;89.00;100498.09;4882419;29;20726;-65
2022/12/13 07:45:52;;;;;;;8.15;4.28;;;;;;;-0.81;88.68;100501.19;4883364;29;20048;-65
2022/12/13 07:48:17;;;;;;;11.82;5.50;;;;;;;-0.84;89.20;100505.16;4923989;28;20041;-66
2022/12/13 07:50:44;;;;;;;12.07;3.72;;;;;;;-0.78;88.87;100509.31;4967066;28;20030;-65
2022/12/13 07:53:09;;;;;;;12.82;4.10;;;;;;;-0.84;88.72;100510.47;4954160;28;20503;-66
2022/12/13 07:55:35;;;;;;;10.57;5.47;;;;;;;-0.75;88.84;100506.09;4960272;28;20027;-66
2022/12/13 07:58:13;;;;;;;9.77;5.35;;;;;;;-0.72;88.66;100508.19;4979008;28;20042;-66
2022/12/13 08:00:41;;;;;;;7.30;4.72;;;;;;;-0.72;88.69;100507.41;4979905;28;20037;-65
2022/12/13 08:03:06;;;;;;;9.57;4.22;;;;;;;-0.66;88.69;100509.72;4982846;28;20371;-66
2022/12/13 08:05:34;;;;;;;8.02;4.05;;;;;;;-0.66;88.69;100504.44;4974760;28;20492;-66
2022/12/13 08:08:00;;;;;;;8.80;4.88;;;;;;;-0.61;88.81;100508.84;4957597;28;20049;-66
2022/12/13 08:10:26;;;;;;;7.78;4.47;;;;;;;-0.59;88.20;100512.00;4958234;28;20030;-66
2022/12/13 08:12:52;;;;;;;13.52;5.07;;;;;;;-0.59;88.67;100517.28;4965697;28;20038;-66
2022/12/13 08:15:18;;;;;;;4.45;3.20;;;;;;;-0.57;88.63;100513.28;4963167;28;20102;-66
2022/12/13 08:17:44;;;;;;;7.53;3.67;;;;;;;-0.71;89.03;100515.03;4964247;28;20031;-66
2022/12/13 08:20:09;;;;;;;17.02;4.25;;;;;;;-0.70;88.98;100523.78;4956959;28;20063;-65
2022/12/13 08:22:35;;;;;;;8.82;3.67;;;;;;;-0.65;90.01;100523.69;4954658;28;20034;-65
2022/12/13 08:25:01;;;;;;;5.75;3.83;;;;;;;-0.63;89.14;100530.28;4964360;28;20523;-66
2022/12/13 08:27:27;;;;;;;11.85;5.47;;;;;;;-0.55;89.26;100521.72;4967889;28;20035;-66
2022/12/13 08:29:53;;;;;;;9.35;6.03;;;;;;;-0.48;89.12;100519.50;4958013;28;20075;-66
2022/12/13 08:32:19;;;;;;;10.40;3.58;;;;;;;-0.52;88.71;100512.44;4967274;28;20027;-66
2022/12/13 08:34:44;;;;;;;8.23;4.70;;;;;;;-0.41;89.10;100522.59;4985486;28;20038;-65
2022/12/13 08:37:11;;;;;;;10.88;6.20;;;;;;;-0.34;89.51;100520.38;4986997;28;20103;-66
2022/12/13 08:39:37;;;;;;;14.60;4.60;;;;;;;-0.23;89.24;100524.44;4990629;28;20034;-65
2022/12/13 08:42:15;;;;;;;11.60;5.50;;;;;;;-0.21;88.60;100519.66;4989106;28;20752;-65
2022/12/13 08:44:41;;;;;;;6.22;4.43;;;;;;;-0.16;88.75;100505.59;4967926;28;20521;-65
2022/12/13 08:47:07;;;;;;;10.15;4.95;;;;;;;-0.04;89.06;100512.00;4957024;28;20043;-66
2022/12/13 08:49:32;;;;;;;18.42;4.40;;;;;;;0.06;88.66;100512.94;4979806;28;20030;-65
2022/12/13 08:51:58;;;;;;;11.45;5.82;;;;;;;0.09;88.71;100512.34;4978543;28;20404;-65
2022/12/13 08:54:24;;;;;;;8.50;3.60;;;;;;;0.13;88.64;100516.78;4962905;28;20022;-65
2022/12/13 08:56:50;;;;;;;19.48;5.47;;;;;;;0.19;88.37;100498.94;4971934;28;20992;-65
2022/12/13 08:59:15;;;;;;;14.82;5.45;;;;;;;0.22;88.51;100501.00;4978098;28;20238;-65
2022/12/13 09:01:41;;;;;;;8.23;4.60;;;;;;;0.36;86.28;100502.63;4961744;28;20117;-66
2022/12/13 09:04:06;;;;;;;11.15;4.80;;;;;;;0.19;86.89;100506.91;4943475;28;20682;-66
2022/12/13 09:06:32;;;;;;;6.30;4.45;;;;;;;0.25;88.25;100506.53;4965375;28;20399;-66
2022/12/13 09:09:00;;;;;;;6.15;3.92;;;;;;;0.42;87.86;100504.13;4955763;28;20443;-66
2022/12/13 09:11:25;;;;;;;9.77;4.68;;;;;;;0.18;86.91;100503.44;4952282;28;20046;-66
2022/12/13 09:13:51;;;;;;;16.02;6.75;;;;;;;0.36;86.92;100509.78;4951899;28;20508;-65
2022/12/13 09:16:22;;;;;;;28.38;6.35;;;;;;;0.32;86.33;100509.59;4954431;28;20077;-65
2022/12/13 09:18:48;;;;;;;8.73;5.28;;;;;;;0.14;86.99;100510.41;4958222;28;20028;-66
2022/12/13 09:21:14;;;;;;;11.15;4.80;;;;;;;0.23;86.81;100507.88;4965352;28;20486;-66
2022/12/13 09:23:43;;;;;;;9.27;4.28;;;;;;;0.26;87.57;100491.41;4958269;28;20044;-66
2022/12/13 09:26:14;;;;;;;10.88;5.30;;;;;;;0.39;87.28;100493.31;4965283;28;20069;-66
2022/12/13 09:28:41;;;;;;;12.65;4.03;;;;;;;0.49;86.43;100485.19;4958555;28;20030;-66
2022/12/13 09:31:08;;;;;;;6.32;3.72;;;;;;;0.70;86.40;100497.00;4956472;28;20031;-66
2022/12/13 09:33:35;;;;;;;5.55;3.92;;;;;;;0.87;86.22;100495.34;4962875;28;20039;-65
2022/12/13 09:36:06;;;;;;;10.88;5.22;;;;;;;0.89;85.80;100489.75;4956351;28;20023;-65
2022/12/13 09:38:35;;;;;;;14.00;5.20;;;;;;;0.86;85.66;100490.34;4961601;28;20063;-66
2022/12/13 09:41:51;;;;;;;22.38;7.40;;;;;;;0.86;84.79;100498.28;4956159;28;20030;-67
2022/12/13 09:44:27;;;;;;;21.33;6.30;;;;;;;0.53;84.26;100497.56;4935276;28;20564;-66
2022/12/13 09:46:54;;;;;;;12.63;4.78;;;;;;;0.66;85.09;100496.00;4910723;28;20040;-66
2022/12/13 09:49:20;;;;;;;6.90;4.00;;;;;;;0.83;84.54;100486.41;4916202;29;20116;-65
2022/12/13 09:51:50;;;;;;;15.82;5.75;;;;;;;0.77;84.51;100500.06;4944388;28;20104;-66
2022/12/13 09:54:18;;;;;;;8.73;4.73;;;;;;;0.82;84.57;100497.28;4941905;28;20548;-65
2022/12/13 09:56:49;;;;;;;13.60;5.15;;;;;;;0.97;84.62;100497.00;4933467;28;20051;-66
2022/12/13 09:59:16;;;;;;;11.45;4.63;;;;;;;1.20;84.38;100493.34;4924437;28;20071;-65
2022/12/13 10:01:41;;;;;;;11.70;5.03;;;;;;;1.33;84.11;100492.56;4921402;29;20126;-66
2022/12/13 10:04:12;;;;;;;10.35;4.78;;;;;;;1.26;83.40;100494.81;4938253;28;20135;-67
2022/12/13 10:06:38;;;;;;;16.48;5.13;;;;;;;1.21;84.05;100494.94;4930324;28;20032;-67
2022/12/13 10:09:09;;;;;;;9.73;4.93;;;;;;;1.37;84.01;100490.91;4941218;28;20440;-66
2022/12/13 10:11:35;;;;;;;;;;;;;;;1.41;82.86;100497.19;4933050;28;20043;-67
2022/12/13 10:14:36;;;;;;;9.23;3.47;;;;;;;1.41;82.29;100497.19;4935825;28;19923;-65
2022/12/13 10:17:07;;;;;;;14.18;6.30;;;;;;;1.45;82.09;100487.53;4941408;28;20051;-66
2022/12/13 10:19:39;;;;;;;12.15;6.22;;;;;;;1.40;81.46;100490.28;4961717;28;20031;-65
2022/12/13 10:22:11;;;;;;;15.50;5.70;;;;;;;1.44;81.30;100496.56;4967327;28;20061;-66
2022/12/13 10:24:56;;;;;;;10.30;5.03;;;;;;;1.44;81.34;100501.88;4957861;28;20041;-66
2022/12/13 10:27:27;;;;;;;12.35;5.35;;;;;;;1.35;80.18;100495.72;4964417;28;20035;-66
2022/12/13 10:30:13;;;;;;;9.98;4.50;;;;;;;1.28;80.63;100492.66;4960523;28;20403;-65
2022/12/13 10:32:52;;;;;;;15.02;4.85;;;;;;;1.37;81.22;100490.91;4960352;28;20511;-66
2022/12/13 10:35:26;;;;;;;15.70;6.70;;;;;;;1.37;81.07;100495.41;4966900;28;20285;-65
2022/12/13 10:37:53;;;;;;;13.77;4.95;;;;;;;1.43;81.22;100497.66;4951087;28;20125;-65
2022/12/13 10:40:29;;;;;;;15.95;6.60;;;;;;;1.50;80.80;100494.59;4949796;28;20019;-66
2022/12/13 10:43:20;;;;;;;11.88;5.80;;;;;;;1.13;80.38;100478.94;4956957;28;20054;-65
2022/12/13 10:46:00;;;;;;;16.40;5.88;;;;;;;1.10;80.21;100485.63;4963794;28;20026;-65
2022/12/13 10:48:47;;;;;;;9.85;5.10;;;;;;;1.15;80.91;100482.88;4954049;28;20031;-65
2022/12/13 10:51:17;;;;;;;9.70;5.68;;;;;;;1.22;81.03;100477.94;4958970;28;20047;-65
2022/12/13 10:53:58;;;;;;;8.13;4.50;;;;;;;1.29;80.65;100475.69;4958277;28;20031;-66
2022/12/13 10:56:35;;;;;;;11.43;4.38;;;;;;;1.09;81.78;100476.09;4937272;28;20538;-65
2022/12/13 10:59:19;;;;;;;10.65;5.47;;;;;;;0.93;82.09;100471.41;4954566;28;20075;-66
2022/12/13 11:01:45;;;;;;;11.50;5.47;;;;;;;0.84;82.39;100471.28;4957070;28;20566;-65
2022/12/13 11:04:31;;;;;;;13.80;6.50;;;;;;;1.11;82.08;100463.34;4971145;28;20154;-64
2022/12/13 11:07:00;;;;;;;15.68;5.75;;;;;;;1.18;80.76;100471.66;4972107;28;20622;-66
2022/12/13 11:09:31;;;;;;;10.10;6.03;;;;;;;1.08;81.46;100460.50;4966289;28;20162;-65
2022/12/13 11:12:00;;;;;;;13.98;5.13;;;;;;;1.08;82.10;100461.28;4966889;28;20097;-64
2022/12/13 11:14:33;;;;;;;17.55;6.15;;;;;;;1.05;82.07;100463.72;4957021;28;20081;-66
2022/12/13 11:17:09;;;;;;;20.08;4.93;;;;;;;1.08;81.96;100463.94;4978186;28;20430;-65
2022/12/13 11:19:39;;;;;;;9.25;6.28;;;;;;;0.97;82.64;100459.91;4983906;28;20077;-65
2022/12/13 11:22:07;;;;;;;11.00;6.47;;;;;;;1.10;81.88;100455.69;4978520;28;20038;-65
2022/12/13 11:24:37;;;;;;;6.53;3.78;;;;;;;0.98;82.08;100452.75;4954436;28;21952;-66
2022/12/13 11:27:24;;;;;;;10.15;3.78;;;;;;;1.14;81.57;100454.00;4962166;28;20493;-65
2022/12/13 11:30:11;;;;;;;15.85;4.60;;;;;;;1.02;82.68;100449.22;4962912;28;20089;-66
2022/12/13 11:32:45;;;;;;;8.15;4.57;;;;;;;1.02;83.27;100446.56;4966160;28;20386;-65
2022/12/13 11:35:27;;;;;;;8.85;5.30;;;;;;;1.08;83.49;100436.63;4969709;28;20039;-65
2022/12/13 11:38:09;;;;;;;11.82;5.28;;;;;;;1.22;83.45;100440.06;4968007;28;20451;-66
2022/12/13 11:40:45;;;;;;;19.85;5.95;;;;;;;1.13;83.67;100439.16;4961749;28;20043;-68